Time;durP1;ratioP1;P1;durP2;ratioP2;P2;SDS_P1;SDS_P2;PMS_P1;PMS_P2;Temp;Humidity;BMP_temperature;BMP_pressure;BME280_temperature;BME280_humidity;BME280_pressure;Samples;Min_cycle;Max_cycle;Signal;HPM_P1;HPM_P2
2024/01/06 00:00:51;;;;;;;5.32;2.47;;;10.00;70.30;;;;;;2511455;54;21036;-68
2024/01/06 00:03:17;;;;;;;6.65;2.72;;;10.00;70.40;;;;;;2509311;55;21371;-68
2024/01/06 00:05:43;;;;;;;5.05;2.20;;;10.00;70.40;;;;;;2509982;54;21007;-69
2024/01/06 00:08:10;;;;;;;6.55;2.90;;;10.00;70.40;;;;;;2277736;55;20991;-68
2024/01/06 00:10:37;;;;;;;6.20;3.03;;;9.90;71.40;;;;;;2277512;56;21019;-68
2024/01/06 00:13:03;;;;;;;6.82;3.22;;;9.90;71.40;;;;;;2509970;55;21676;-68
2024/01/06 00:15:30;;;;;;;8.30;3.17;;;9.90;71.40;;;;;;2509535;55;20987;-68
2024/01/06 00:17:59;;;;;;;7.00;3.17;;;9.90;71.50;;;;;;2510213;54;21020;-68
2024/01/06 00:20:25;;;;;;;5.85;2.78;;;9.90;71.50;;;;;;2511528;54;20981;-69
2024/01/06 00:22:51;;;;;;;4.93;2.15;;;9.90;71.50;;;;;;2279656;54;20965;-68
2024/01/06 00:25:22;;;;;;;4.12;2.05;;;9.90;71.50;;;;;;2277654;56;21505;-68
2024/01/06 00:27:49;;;;;;;3.75;2.10;;;9.80;71.40;;;;;;2287029;56;20990;-68
2024/01/06 00:30:15;;;;;;;4.18;2.35;;;9.90;71.50;;;;;;2524893;53;21237;-68
2024/01/06 00:32:42;;;;;;;5.07;1.90;;;9.80;71.70;;;;;;2511812;54;21010;-68
2024/01/06 00:35:08;;;;;;;8.07;3.10;;;9.80;71.40;;;;;;2278762;55;21029;-67
2024/01/06 00:37:34;;;;;;;12.10;4.43;;;9.80;71.40;;;;;;2510034;55;20967;-68
2024/01/06 00:40:02;;;;;;;13.98;4.65;;;9.80;71.40;;;;;;2277616;56;20980;-68
2024/01/06 00:42:28;;;;;;;9.25;3.60;;;9.80;71.50;;;;;;2282792;55;22296;-67
2024/01/06 00:44:54;;;;;;;11.00;4.15;;;9.80;71.50;;;;;;2511687;54;21004;-68
2024/01/06 00:47:24;;;;;;;8.95;3.53;;;9.70;71.40;;;;;;2277466;55;21507;-68
2024/01/06 00:49:50;;;;;;;9.98;3.45;;;9.70;71.40;;;;;;2509979;55;20959;-69
2024/01/06 00:52:16;;;;;;;8.95;3.60;;;9.70;71.40;;;;;;2276562;55;21399;-68
2024/01/06 00:54:43;;;;;;;8.65;3.72;;;9.70;71.40;;;;;;2278056;56;20956;-68
2024/01/06 00:57:09;;;;;;;10.32;3.53;;;9.50;71.20;;;;;;2279740;56;20969;-68
2024/01/06 00:59:37;;;;;;;6.53;2.85;;;9.70;71.40;;;;;;2277781;56;21398;-68
2024/01/06 01:02:03;;;;;;;6.32;2.65;;;9.70;71.40;;;;;;2509970;55;20964;-68
2024/01/06 01:04:33;;;;;;;6.82;2.60;;;9.70;71.40;;;;;;2278388;56;21823;-68
2024/01/06 01:07:00;;;;;;;6.05;2.22;;;9.60;71.40;;;;;;2509551;54;20955;-68
2024/01/06 01:09:26;;;;;;;7.15;2.37;;;9.60;71.30;;;;;;2277742;56;21071;-68
2024/01/06 01:11:53;;;;;;;4.70;2.17;;;9.60;71.30;;;;;;2288066;55;21001;-68
2024/01/06 01:14:19;;;;;;;9.95;4.05;;;9.60;71.20;;;;;;2290668;54;21809;-69
2024/01/06 01:16:45;;;;;;;8.45;3.72;;;9.60;71.30;;;;;;2510602;55;21072;-68
2024/01/06 01:19:12;;;;;;;6.20;3.15;;;9.50;71.20;;;;;;2277399;55;20944;-68
2024/01/06 01:21:38;;;;;;;6.30;2.50;;;9.50;71.20;;;;;;2278409;56;20912;-68
2024/01/06 01:24:07;;;;;;;6.18;2.67;;;9.50;71.20;;;;;;2507429;55;20944;-68
2024/01/06 01:26:35;;;;;;;6.55;2.50;;;9.50;71.30;;;;;;2509125;54;20980;-68
2024/01/06 01:29:01;;;;;;;6.32;2.78;;;9.50;71.20;;;;;;2277791;56;21015;-69
2024/01/06 01:31:27;;;;;;;6.35;2.42;;;9.50;71.30;;;;;;2509325;54;21737;-68
2024/01/06 01:33:55;;;;;;;5.97;2.35;;;9.40;71.20;;;;;;2277609;55;21031;-68
2024/01/06 01:36:21;;;;;;;5.15;2.10;;;9.40;71.10;;;;;;2509032;54;21792;-69
2024/01/06 01:38:48;;;;;;;6.37;2.10;;;9.40;71.10;;;;;;2276838;56;20992;-68
2024/01/06 01:41:14;;;;;;;5.68;2.00;;;9.30;70.90;;;;;;2277136;56;22417;-68
2024/01/06 01:43:40;;;;;;;4.05;1.80;;;9.30;71.00;;;;;;2277835;56;20976;-68
2024/01/06 01:46:07;;;;;;;4.00;1.42;;;9.30;71.00;;;;;;2277485;55;21091;-69
2024/01/06 01:48:34;;;;;;;3.33;1.45;;;9.30;71.00;;;;;;2510057;55;21521;-68
2024/01/06 01:51:00;;;;;;;4.28;1.77;;;9.30;71.10;;;;;;2509674;54;20968;-68
2024/01/06 01:53:28;;;;;;;4.10;1.90;;;9.30;71.00;;;;;;2277383;56;21047;-68
2024/01/06 01:55:54;;;;;;;4.05;2.03;;;9.30;71.20;;;;;;2283912;54;20974;-68
2024/01/06 01:58:20;;;;;;;4.70;1.70;;;9.20;71.10;;;;;;2277321;55;20976;-68
2024/01/06 02:00:47;;;;;;;4.62;1.30;;;9.20;71.20;;;;;;2509684;55;21001;-68
2024/01/06 02:03:14;;;;;;;2.33;0.95;;;9.20;71.30;;;;;;2277428;55;21165;-68
2024/01/06 02:05:41;;;;;;;2.83;1.08;;;9.20;71.40;;;;;;2281288;55;21027;-68
2024/01/06 02:08:07;;;;;;;3.42;1.10;;;9.20;71.40;;;;;;2279775;54;20932;-68
2024/01/06 02:10:34;;;;;;;3.72;0.90;;;9.20;71.40;;;;;;2509288;54;20948;-68
2024/01/06 02:13:12;;;;;;;2.75;1.00;;;9.10;71.40;;;;;;2277657;55;21498;-68
2024/01/06 02:15:39;;;;;;;3.08;1.15;;;9.20;71.20;;;;;;2277945;55;20926;-69
2024/01/06 02:18:05;;;;;;;2.67;0.90;;;9.10;71.30;;;;;;2509684;55;21453;-68
2024/01/06 02:20:32;;;;;;;4.25;1.10;;;9.20;71.40;;;;;;2278131;55;21031;-68
2024/01/06 02:23:00;;;;;;;2.60;0.90;;;9.10;71.30;;;;;;2509418;54;21012;-68
2024/01/06 02:25:26;;;;;;;2.42;0.93;;;9.10;71.40;;;;;;2508887;54;20996;-67
2024/01/06 02:27:52;;;;;;;2.72;1.00;;;9.10;71.40;;;;;;2282289;55;21026;-68
2024/01/06 02:30:19;;;;;;;3.45;1.33;;;9.10;71.40;;;;;;2278574;55;21780;-68
2024/01/06 02:32:45;;;;;;;3.62;1.30;;;9.10;71.50;;;;;;2509592;55;20968;-68
2024/01/06 02:35:11;;;;;;;2.35;1.05;;;9.10;71.60;;;;;;2509531;55;20968;-68
2024/01/06 02:37:38;;;;;;;2.42;0.90;;;9.10;71.60;;;;;;2277599;55;21797;-68
2024/01/06 02:40:05;;;;;;;2.53;0.90;;;9.10;71.60;;;;;;2509103;54;20995;-68
2024/01/06 02:42:31;;;;;;;2.97;1.00;;;9.10;71.60;;;;;;2277786;56;20976;-68
2024/01/06 02:44:58;;;;;;;2.45;0.70;;;9.10;71.60;;;;;;2277512;55;21415;-68
2024/01/06 02:47:24;;;;;;;2.62;0.90;;;9.10;71.60;;;;;;2509840;54;21500;-68
2024/01/06 02:49:50;;;;;;;2.87;0.75;;;9.10;71.60;;;;;;2277356;55;21028;-68
2024/01/06 02:52:17;;;;;;;3.17;0.98;;;9.10;71.60;;;;;;2277432;56;20964;-69
2024/01/06 02:54:44;;;;;;;2.90;0.93;;;9.10;71.70;;;;;;2277220;56;21761;-68
2024/01/06 02:57:13;;;;;;;3.50;1.00;;;9.10;71.70;;;;;;2509525;54;20957;-68
2024/01/06 02:59:39;;;;;;;3.70;1.15;;;9.10;71.70;;;;;;2509764;55;20962;-68
2024/01/06 03:02:06;;;;;;;2.67;1.05;;;9.10;71.70;;;;;;2277396;56;20980;-68
2024/01/06 03:04:33;;;;;;;4.18;1.55;;;9.10;71.70;;;;;;2277690;55;20984;-68
2024/01/06 03:06:59;;;;;;;4.93;1.80;;;9.10;71.70;;;;;;2509692;55;20992;-68
2024/01/06 03:09:26;;;;;;;6.15;2.37;;;9.10;71.60;;;;;;2512059;53;21008;-68
2024/01/06 03:11:56;;;;;;;6.12;2.37;;;9.10;71.50;;;;;;2509742;55;20928;-68
2024/01/06 03:14:22;;;;;;;4.70;2.15;;;9.10;71.50;;;;;;2510080;54;21555;-68
2024/01/06 03:16:48;;;;;;;6.00;2.22;;;9.10;71.40;;;;;;2277104;55;21268;-68
2024/01/06 03:19:15;;;;;;;4.72;2.12;;;9.00;71.30;;;;;;2509588;54;20980;-68
2024/01/06 03:21:42;;;;;;;4.43;2.05;;;9.00;71.30;;;;;;2277632;55;21004;-68
2024/01/06 03:24:09;;;;;;;4.30;1.62;;;9.00;71.30;;;;;;2509542;54;20949;-68
2024/01/06 03:26:35;;;;;;;3.60;1.15;;;9.00;71.30;;;;;;2277888;55;20968;-68
2024/01/06 03:29:02;;;;;;;5.47;1.55;;;9.00;71.20;;;;;;2277611;55;20942;-68
2024/01/06 03:31:29;;;;;;;2.70;1.02;;;9.00;71.20;;;;;;2278065;56;20987;-68
2024/01/06 03:33:56;;;;;;;3.97;1.60;;;9.00;71.20;;;;;;2277724;56;21553;-68
2024/01/06 03:36:23;;;;;;;4.00;1.50;;;8.90;71.10;;;;;;2277571;55;21388;-67
2024/01/06 03:38:52;;;;;;;3.95;1.65;;;8.90;71.10;;;;;;2277185;56;21001;-68
2024/01/06 03:41:22;;;;;;;4.53;1.20;;;8.90;71.10;;;;;;2277594;56;21366;-67
2024/01/06 03:43:48;;;;;;;2.92;1.20;;;8.90;71.20;;;;;;2510303;55;21032;-68
2024/01/06 03:46:14;;;;;;;3.65;1.20;;;8.90;71.30;;;;;;2508567;54;20957;-68
2024/01/06 03:48:42;;;;;;;3.28;1.20;;;8.90;71.40;;;;;;2277791;56;21012;-67
2024/01/06 03:51:09;;;;;;;2.90;1.00;;;8.90;71.40;;;;;;2510059;54;21295;-67
2024/01/06 03:53:36;;;;;;;3.17;1.23;;;8.90;71.40;;;;;;2509097;55;21736;-67
2024/01/06 03:56:06;;;;;;;5.25;1.15;;;8.80;71.30;;;;;;2276947;55;21115;-68
2024/01/06 03:58:32;;;;;;;4.32;1.30;;;8.80;71.40;;;;;;2509496;54;21864;-68
2024/01/06 04:01:01;;;;;;;3.50;1.30;;;8.80;71.30;;;;;;2511635;54;20959;-68
2024/01/06 04:03:27;;;;;;;3.85;1.33;;;8.80;71.30;;;;;;2512277;53;20993;-68
2024/01/06 04:05:54;;;;;;;3.22;1.12;;;8.80;71.30;;;;;;2509965;55;21005;-68
2024/01/06 04:08:20;;;;;;;3.50;1.00;;;8.80;71.20;;;;;;2510065;55;21013;-68
2024/01/06 04:10:47;;;;;;;2.90;1.08;;;8.80;71.30;;;;;;2279612;55;21060;-68
2024/01/06 04:13:15;;;;;;;2.60;0.88;;;8.80;71.30;;;;;;2277735;55;20952;-68
2024/01/06 04:15:42;;;;;;;2.50;1.05;;;8.80;71.20;;;;;;2262563;56;21025;-68
2024/01/06 04:18:09;;;;;;;2.58;0.90;;;8.80;71.20;;;;;;2281384;55;20986;-68
2024/01/06 04:20:36;;;;;;;2.67;0.90;;;8.80;71.20;;;;;;2509958;55;20948;-67
2024/01/06 04:23:04;;;;;;;3.12;1.00;;;8.80;71.20;;;;;;2513211;54;21759;-67
2024/01/06 04:25:30;;;;;;;3.60;0.88;;;8.80;71.20;;;;;;2510087;54;21813;-68
2024/01/06 04:27:56;;;;;;;2.45;1.10;;;8.70;71.20;;;;;;2509393;54;21327;-68
2024/01/06 04:30:24;;;;;;;2.03;0.90;;;8.70;71.30;;;;;;2282259;55;21586;-68
2024/01/06 04:32:50;;;;;;;2.17;0.88;;;8.70;71.30;;;;;;2286581;55;20948;-68
2024/01/06 04:35:16;;;;;;;4.43;1.30;;;8.70;71.40;;;;;;2277167;55;21036;-68
2024/01/06 04:37:45;;;;;;;3.30;1.10;;;8.70;71.40;;;;;;2276160;55;20956;-68
2024/01/06 04:40:13;;;;;;;3.10;1.20;;;8.70;71.40;;;;;;2509395;54;20964;-68
2024/01/06 04:42:39;;;;;;;2.97;0.90;;;8.70;71.50;;;;;;2508867;54;20944;-68
2024/01/06 04:45:06;;;;;;;2.42;0.73;;;8.70;71.50;;;;;;2277202;55;20976;-68
2024/01/06 04:47:32;;;;;;;4.30;1.83;;;8.70;71.50;;;;;;2277111;56;21256;-67
2024/01/06 04:50:01;;;;;;;7.03;3.58;;;8.70;71.50;;;;;;2509679;54;20932;-68
2024/01/06 04:52:27;;;;;;;13.52;6.72;;;8.70;71.50;;;;;;2277476;55;21497;-68
2024/01/06 04:54:53;;;;;;;8.80;4.37;;;8.70;71.50;;;;;;2509072;54;20992;-67
2024/01/06 04:57:21;;;;;;;7.35;3.58;;;8.70;71.50;;;;;;2509544;55;20992;-68
2024/01/06 04:59:47;;;;;;;7.43;3.22;;;8.70;71.50;;;;;;2277040;55;21018;-68
2024/01/06 05:02:14;;;;;;;5.37;2.40;;;8.70;71.60;;;;;;2277469;56;21828;-68
2024/01/06 05:04:40;;;;;;;3.60;1.70;;;8.70;72.40;;;;;;2277593;55;20972;-68
2024/01/06 05:07:06;;;;;;;3.95;1.50;;;8.70;71.70;;;;;;2277324;55;20985;-68
2024/01/06 05:09:33;;;;;;;3.65;1.40;;;8.70;71.70;;;;;;2509839;54;20937;-67
2024/01/06 05:11:59;;;;;;;4.15;1.33;;;8.70;71.70;;;;;;2509672;54;21007;-68
2024/01/06 05:14:28;;;;;;;5.95;1.52;;;8.70;71.70;;;;;;2277783;56;21529;-68
2024/01/06 05:16:55;;;;;;;2.72;1.17;;;8.70;71.80;;;;;;2277455;55;20956;-69
2024/01/06 05:19:22;;;;;;;2.35;1.00;;;8.80;71.90;;;;;;2509519;54;20948;-68
2024/01/06 05:21:49;;;;;;;2.22;0.85;;;8.80;71.90;;;;;;2509561;54;21012;-68
2024/01/06 05:24:16;;;;;;;3.20;0.98;;;8.80;71.90;;;;;;2509769;54;20941;-67
2024/01/06 05:26:42;;;;;;;3.08;1.05;;;8.80;71.90;;;;;;2509530;54;21201;-68
2024/01/06 05:29:08;;;;;;;2.70;0.85;;;8.80;71.90;;;;;;2509567;54;21192;-68
2024/01/06 05:31:36;;;;;;;3.50;0.70;;;8.80;71.90;;;;;;2281095;55;21009;-68
2024/01/06 05:34:02;;;;;;;2.10;0.90;;;8.80;71.90;;;;;;2287638;55;21267;-68
2024/01/06 05:36:29;;;;;;;1.33;0.60;;;8.80;71.90;;;;;;2277559;55;20952;-67
2024/01/06 05:38:55;;;;;;;2.12;0.90;;;8.80;71.90;;;;;;2280473;55;21771;-68
2024/01/06 05:41:24;;;;;;;3.22;0.88;;;8.80;71.80;;;;;;2283840;55;20962;-68
2024/01/06 05:43:51;;;;;;;4.03;1.10;;;8.80;71.70;;;;;;2277275;55;21480;-68
2024/01/06 05:46:21;;;;;;;2.25;0.90;;;8.80;71.70;;;;;;2277029;56;20988;-67
2024/01/06 05:48:48;;;;;;;3.70;1.20;;;8.80;71.60;;;;;;2513162;54;21008;-68
2024/01/06 05:51:14;;;;;;;3.35;0.90;;;8.80;71.70;;;;;;2294125;55;20994;-68
2024/01/06 05:53:41;;;;;;;3.00;0.90;;;8.80;71.70;;;;;;2283512;54;20972;-68
2024/01/06 05:56:09;;;;;;;2.90;1.08;;;8.80;71.70;;;;;;2511699;53;22022;-68
2024/01/06 05:58:36;;;;;;;2.58;0.90;;;8.80;71.60;;;;;;2279101;55;21445;-68
2024/01/06 06:01:02;;;;;;;2.87;0.80;;;8.80;71.50;;;;;;2509598;55;20996;-68
2024/01/06 06:03:28;;;;;;;4.32;0.90;;;8.80;71.40;;;;;;2278002;56;20964;-68
2024/01/06 06:05:55;;;;;;;2.53;1.02;;;8.70;71.30;;;;;;2277550;56;20964;-68
2024/01/06 06:08:22;;;;;;;3.58;0.93;;;8.70;71.30;;;;;;2277739;55;20980;-68
2024/01/06 06:11:01;;;;;;;1.83;0.75;;;8.70;71.40;;;;;;2509892;54;20940;-68
2024/01/06 06:13:28;;;;;;;1.90;0.85;;;8.70;71.40;;;;;;2509941;54;20995;-68
2024/01/06 06:15:55;;;;;;;2.60;0.90;;;8.70;71.40;;;;;;2277668;55;20996;-68
2024/01/06 06:18:21;;;;;;;2.53;0.90;;;8.70;71.40;;;;;;2510384;54;20948;-68
2024/01/06 06:20:47;;;;;;;2.75;0.98;;;8.70;71.50;;;;;;2510053;55;20975;-68
2024/01/06 06:23:15;;;;;;;3.05;1.00;;;8.70;71.60;;;;;;2277578;55;21060;-68
2024/01/06 06:25:42;;;;;;;2.55;1.00;;;8.70;71.70;;;;;;2509632;55;20912;-68
2024/01/06 06:28:08;;;;;;;3.47;1.40;;;8.70;71.70;;;;;;2277456;55;21019;-68
2024/01/06 06:30:35;;;;;;;2.47;1.02;;;8.70;71.70;;;;;;2510051;54;20956;-69
2024/01/06 06:33:02;;;;;;;3.25;1.30;;;8.70;71.70;;;;;;2509336;54;21019;-68
2024/01/06 06:35:31;;;;;;;4.10;1.27;;;8.70;71.70;;;;;;2509826;55;21819;-68
2024/01/06 06:37:57;;;;;;;3.58;1.40;;;8.70;71.70;;;;;;2276711;56;20948;-68
2024/01/06 06:40:24;;;;;;;5.10;1.50;;;8.70;71.70;;;;;;2277618;55;21000;-68
2024/01/06 06:42:50;;;;;;;3.72;1.12;;;8.70;71.70;;;;;;2509817;54;21509;-68
2024/01/06 06:45:22;;;;;;;3.80;1.30;;;8.70;71.80;;;;;;2509714;54;20952;-68
2024/01/06 06:47:49;;;;;;;;;;;8.70;71.70;;;;;;2516415;54;20967;-68
2024/01/06 06:50:16;;;;;;;2.92;1.12;;;8.70;70.80;;;;;;2510194;54;20080;-68
2024/01/06 06:52:42;;;;;;;4.68;1.42;;;8.70;71.80;;;;;;2277801;56;21020;-68
2024/01/06 06:55:09;;;;;;;2.67;1.30;;;8.70;71.80;;;;;;2277656;55;21457;-68
2024/01/06 06:57:39;;;;;;;4.53;1.48;;;8.70;71.90;;;;;;2510153;54;22363;-68
2024/01/06 07:00:07;;;;;;;3.03;1.25;;;8.70;72.10;;;;;;2509362;55;21012;-68
2024/01/06 07:02:34;;;;;;;2.50;1.30;;;8.70;72.10;;;;;;2277684;55;20980;-68
2024/01/06 07:05:00;;;;;;;2.87;1.10;;;8.70;72.00;;;;;;2282897;55;20970;-68
2024/01/06 07:07:26;;;;;;;2.78;1.10;;;8.80;72.00;;;;;;2510781;54;21020;-68
2024/01/06 07:09:53;;;;;;;2.75;1.20;;;8.70;71.90;;;;;;2277749;56;21024;-68
2024/01/06 07:12:19;;;;;;;3.60;1.27;;;8.80;72.00;;;;;;2277455;55;20996;-68
2024/01/06 07:14:45;;;;;;;4.15;1.50;;;8.80;72.10;;;;;;2510184;54;21709;-68
2024/01/06 07:17:12;;;;;;;3.30;1.60;;;8.80;72.10;;;;;;2509846;54;21794;-68
2024/01/06 07:19:38;;;;;;;4.40;2.08;;;8.80;72.20;;;;;;2277313;56;20976;-68
2024/01/06 07:22:05;;;;;;;4.57;2.05;;;8.80;72.20;;;;;;2509136;55;20955;-68
2024/01/06 07:24:32;;;;;;;5.00;2.40;;;8.80;72.30;;;;;;2509733;54;20977;-68
2024/01/06 07:26:58;;;;;;;4.65;2.83;;;8.90;72.40;;;;;;2513311;53;20970;-68
2024/01/06 07:29:25;;;;;;;5.25;2.90;;;8.80;72.30;;;;;;2510146;54;20956;-68
2024/01/06 07:31:51;;;;;;;4.03;2.30;;;8.90;72.30;;;;;;2277574;55;20928;-68
2024/01/06 07:34:18;;;;;;;3.85;2.00;;;8.90;72.30;;;;;;2509826;54;20956;-68
2024/01/06 07:36:44;;;;;;;4.32;2.40;;;8.90;72.30;;;;;;2510236;55;20933;-68
2024/01/06 07:39:11;;;;;;;4.93;2.08;;;8.90;72.30;;;;;;2277523;55;21004;-68
2024/01/06 07:41:37;;;;;;;3.95;2.17;;;8.90;72.30;;;;;;2510136;54;21468;-68
2024/01/06 07:44:04;;;;;;;4.18;2.10;;;8.90;72.30;;;;;;2282717;54;21034;-68
2024/01/06 07:46:32;;;;;;;2.92;1.50;;;9.00;72.40;;;;;;2278857;55;20976;-68
2024/01/06 07:48:58;;;;;;;3.30;1.70;;;9.00;72.40;;;;;;2509467;54;21004;-68
2024/01/06 07:51:25;;;;;;;3.30;1.50;;;9.00;72.40;;;;;;2509973;54;21004;-68
2024/01/06 07:53:52;;;;;;;3.37;1.50;;;9.00;72.30;;;;;;2509497;55;20916;-68
2024/01/06 07:56:18;;;;;;;3.17;1.73;;;9.00;72.30;;;;;;2512536;54;20950;-68
2024/01/06 07:58:44;;;;;;;5.00;2.00;;;9.00;72.30;;;;;;2278677;55;21539;-68
2024/01/06 08:01:13;;;;;;;4.12;1.80;;;9.00;72.30;;;;;;2277700;55;20984;-68
2024/01/06 08:03:39;;;;;;;4.47;1.60;;;9.10;72.40;;;;;;2278188;56;21351;-67
2024/01/06 08:06:06;;;;;;;3.50;1.60;;;9.10;72.40;;;;;;2277093;55;21576;-68
2024/01/06 08:08:32;;;;;;;4.62;1.77;;;9.10;72.40;;;;;;2277533;55;21064;-68
2024/01/06 08:10:58;;;;;;;5.10;2.20;;;9.10;72.40;;;;;;2509078;54;20940;-68
2024/01/06 08:13:27;;;;;;;4.43;2.28;;;9.10;72.50;;;;;;2277479;56;21035;-69
2024/01/06 08:15:54;;;;;;;4.50;2.17;;;9.10;73.20;;;;;;2277501;56;20940;-68
2024/01/06 08:18:23;;;;;;;5.75;2.30;;;9.20;72.70;;;;;;2277653;56;20956;-68
2024/01/06 08:20:49;;;;;;;4.07;2.08;;;9.20;72.70;;;;;;2277938;55;21056;-69
2024/01/06 08:23:17;;;;;;;3.75;1.90;;;9.20;72.70;;;;;;2277351;56;22035;-68
2024/01/06 08:25:45;;;;;;;4.35;2.17;;;9.20;72.80;;;;;;2277594;56;20972;-69
2024/01/06 08:28:12;;;;;;;4.78;2.33;;;9.30;72.80;;;;;;2277271;55;21023;-68
2024/01/06 08:30:38;;;;;;;5.80;2.30;;;9.30;72.80;;;;;;2277434;56;21040;-68
2024/01/06 08:33:06;;;;;;;4.65;2.50;;;9.30;72.80;;;;;;2282580;55;21018;-69
2024/01/06 08:35:32;;;;;;;3.97;2.17;;;9.30;72.90;;;;;;2277414;55;20979;-68
2024/01/06 08:37:59;;;;;;;6.95;3.10;;;9.30;72.90;;;;;;2513167;53;21481;-68
2024/01/06 08:40:27;;;;;;;8.40;3.15;;;9.40;73.00;;;;;;2509865;54;20936;-68
2024/01/06 08:42:53;;;;;;;5.32;2.42;;;9.40;72.90;;;;;;2279004;55;20948;-68
2024/01/06 08:45:22;;;;;;;4.85;2.65;;;9.40;73.00;;;;;;2509942;55;20988;-68
2024/01/06 08:47:48;;;;;;;3.67;2.00;;;9.50;73.20;;;;;;2509353;54;21521;-69
2024/01/06 08:50:15;;;;;;;4.05;2.00;;;9.50;73.10;;;;;;2509032;54;20946;-68
2024/01/06 08:52:41;;;;;;;4.35;2.03;;;9.60;73.30;;;;;;2277580;55;21040;-68
2024/01/06 08:55:08;;;;;;;4.93;2.28;;;9.60;73.30;;;;;;2280886;55;21084;-69
2024/01/06 08:57:34;;;;;;;4.03;2.30;;;9.60;73.30;;;;;;2300897;55;21422;-68
2024/01/06 09:00:00;;;;;;;4.70;2.15;;;9.60;73.20;;;;;;2510168;54;21004;-68
2024/01/06 09:02:27;;;;;;;4.68;2.25;;;9.70;73.30;;;;;;2509289;55;20948;-69
2024/01/06 09:04:53;;;;;;;5.07;2.80;;;9.70;73.30;;;;;;2277855;56;20988;-68
2024/01/06 09:07:19;;;;;;;5.05;2.75;;;9.80;73.40;;;;;;2277656;56;20948;-68
2024/01/06 09:09:46;;;;;;;7.62;3.95;;;9.80;73.40;;;;;;2277910;56;21044;-68
2024/01/06 09:12:12;;;;;;;9.82;5.87;;;9.80;73.40;;;;;;2509471;54;21012;-68
2024/01/06 09:14:40;;;;;;;9.57;5.18;;;9.90;73.40;;;;;;2510976;53;21549;-68
2024/01/06 09:17:06;;;;;;;8.45;5.05;;;9.90;73.40;;;;;;2280879;55;20968;-68
2024/01/06 09:19:34;;;;;;;6.85;3.97;;;9.90;73.30;;;;;;2277644;56;21051;-68
2024/01/06 09:22:00;;;;;;;8.60;3.40;;;10.00;72.20;;;;;;2277960;55;20956;-68
2024/01/06 09:24:28;;;;;;;4.55;2.28;;;10.00;72.20;;;;;;2509585;54;20995;-67
2024/01/06 09:26:56;;;;;;;4.65;2.20;;;10.10;72.20;;;;;;2278115;55;21012;-68
2024/01/06 09:29:22;;;;;;;5.65;2.28;;;10.10;72.20;;;;;;2510391;54;20976;-68
2024/01/06 09:31:49;;;;;;;5.15;2.15;;;10.10;72.20;;;;;;2510428;55;20976;-67
2024/01/06 09:34:17;;;;;;;4.30;2.03;;;10.10;72.20;;;;;;2509718;54;22445;-68
2024/01/06 09:36:43;;;;;;;4.05;1.73;;;10.20;72.30;;;;;;2510158;54;21035;-67
2024/01/06 09:39:11;;;;;;;3.40;1.75;;;10.20;72.30;;;;;;2277229;55;21027;-68
2024/01/06 09:41:37;;;;;;;3.50;1.60;;;10.30;72.30;;;;;;2509957;55;21496;-68
2024/01/06 09:44:04;;;;;;;4.18;2.08;;;10.30;72.40;;;;;;2508997;54;21208;-67
2024/01/06 09:46:30;;;;;;;4.18;1.85;;;10.30;72.40;;;;;;2277564;56;21050;-68
2024/01/06 09:48:58;;;;;;;3.17;1.60;;;10.40;72.40;;;;;;2509506;54;21015;-67
2024/01/06 09:51:24;;;;;;;2.95;1.50;;;10.40;72.40;;;;;;2277749;55;20968;-67
2024/01/06 09:54:01;;;;;;;5.00;2.40;;;10.50;72.50;;;;;;2278118;56;21008;-68
2024/01/06 09:56:30;;;;;;;5.47;2.20;;;10.50;72.20;;;;;;2277336;55;21843;-68
2024/01/06 09:58:56;;;;;;;4.15;1.65;;;10.60;72.40;;;;;;2277551;56;21032;-67
2024/01/06 10:01:25;;;;;;;3.90;1.73;;;10.60;72.20;;;;;;2281099;55;21009;-68
2024/01/06 10:03:52;;;;;;;3.50;1.23;;;10.60;72.10;;;;;;2280502;54;21000;-68
2024/01/06 10:06:21;;;;;;;3.62;1.80;;;10.60;71.90;;;;;;2277220;56;21091;-68
2024/01/06 10:08:51;;;;;;;3.80;1.92;;;10.70;71.80;;;;;;2277877;56;21094;-69
2024/01/06 10:11:18;;;;;;;3.95;1.83;;;10.70;71.70;;;;;;2509389;54;20864;-68
2024/01/06 10:13:46;;;;;;;2.95;1.35;;;10.70;71.70;;;;;;2512069;54;21062;-67
2024/01/06 10:16:12;;;;;;;3.33;1.77;;;10.70;71.70;;;;;;2511860;53;21468;-68
2024/01/06 10:18:42;;;;;;;3.30;1.85;;;10.80;71.70;;;;;;2278043;55;21051;-68
2024/01/06 10:21:08;;;;;;;7.18;2.37;;;10.80;71.70;;;;;;2508765;54;20956;-68
2024/01/06 10:23:36;;;;;;;4.87;1.90;;;10.80;71.70;;;;;;2277506;56;21059;-67
2024/01/06 10:26:04;;;;;;;3.30;1.52;;;10.80;71.60;;;;;;2509417;55;20969;-67
2024/01/06 10:28:31;;;;;;;4.45;1.85;;;10.80;71.60;;;;;;2509835;54;21017;-68
2024/01/06 10:30:57;;;;;;;4.75;2.33;;;10.90;71.60;;;;;;2283734;54;21027;-67
2024/01/06 10:33:25;;;;;;;4.65;2.00;;;10.90;71.40;;;;;;2277633;55;20965;-68
2024/01/06 10:35:52;;;;;;;4.50;1.70;;;10.90;71.20;;;;;;2509242;54;20933;-68
2024/01/06 10:38:19;;;;;;;3.05;1.40;;;10.90;71.20;;;;;;2277071;56;21335;-68
2024/01/06 10:41:06;;;;;;;3.17;1.50;;;10.90;71.10;;;;;;2509722;54;20988;-68
2024/01/06 10:43:38;;;;;;;3.83;1.52;;;10.90;70.50;;;;;;2510426;54;20981;-68
2024/01/06 10:46:04;;;;;;;4.72;1.70;;;10.90;71.10;;;;;;2277579;56;21003;-68
2024/01/06 10:48:34;;;;;;;3.72;1.87;;;10.90;71.10;;;;;;2277439;55;20947;-68
2024/01/06 10:51:01;;;;;;;5.40;2.08;;;10.90;71.20;;;;;;2277254;56;21051;-68
2024/01/06 10:53:28;;;;;;;3.25;1.15;;;11.00;71.30;;;;;;2509240;54;20984;-68
2024/01/06 10:55:54;;;;;;;3.55;1.40;;;11.00;71.30;;;;;;2278039;56;20953;-68
2024/01/06 10:58:21;;;;;;;3.20;1.48;;;11.00;71.30;;;;;;2509376;54;21417;-68
2024/01/06 11:00:48;;;;;;;3.60;1.50;;;11.00;71.20;;;;;;2283402;54;21526;-68
2024/01/06 11:03:15;;;;;;;3.25;1.40;;;11.00;71.30;;;;;;2277639;55;20968;-68
2024/01/06 11:05:43;;;;;;;2.72;1.30;;;11.00;71.20;;;;;;2277363;56;20999;-68
2024/01/06 11:08:10;;;;;;;2.37;1.12;;;11.00;71.30;;;;;;2509407;54;21011;-67
2024/01/06 11:10:37;;;;;;;3.70;1.35;;;11.10;71.50;;;;;;2509587;55;21501;-68
2024/01/06 11:13:16;;;;;;;3.22;1.67;;;11.10;71.50;;;;;;2277312;55;20976;-68
2024/01/06 11:15:43;;;;;;;2.85;1.17;;;11.10;71.20;;;;;;2510744;54;21104;-68
2024/01/06 11:18:15;;;;;;;2.55;1.17;;;11.10;71.40;;;;;;2514925;53;21009;-68
2024/01/06 11:21:24;;;;;;;2.90;1.27;;;11.20;71.50;;;;;;2285219;55;21031;-68
2024/01/06 11:30:40;;;;;;;3.50;1.80;;;11.20;70.50;;;;;;2277641;55;20973;-68
2024/01/06 11:33:08;;;;;;;2.03;0.77;;;11.30;70.00;;;;;;2510761;54;21045;-69
2024/01/06 11:35:37;;;;;;;3.22;1.30;;;11.30;71.10;;;;;;2279110;55;20968;-68
2024/01/06 11:38:05;;;;;;;3.20;1.40;;;11.30;71.00;;;;;;2508105;54;21341;-67
2024/01/06 11:40:35;;;;;;;2.90;1.52;;;11.30;71.00;;;;;;2277182;55;21571;-67
2024/01/06 11:43:09;;;;;;;3.12;1.30;;;11.30;70.90;;;;;;2510741;54;21046;-68
2024/01/06 11:45:38;;;;;;;2.65;1.33;;;11.30;70.70;;;;;;2510915;53;20952;-68
2024/01/06 11:48:05;;;;;;;3.35;1.20;;;11.30;70.70;;;;;;2277400;56;20932;-68
2024/01/06 11:50:36;;;;;;;5.87;2.62;;;11.30;70.80;;;;;;2277664;56;21790;-67
2024/01/06 11:53:03;;;;;;;4.18;1.98;;;11.30;70.70;;;;;;2509781;55;20948;-68
2024/01/06 11:55:31;;;;;;;3.42;1.62;;;11.30;70.80;;;;;;2277382;56;20972;-67
2024/01/06 11:58:01;;;;;;;4.05;1.90;;;11.30;70.90;;;;;;2278144;56;20952;-68
2024/01/06 12:00:28;;;;;;;4.75;2.00;;;11.30;71.00;;;;;;2276947;55;20932;-68
2024/01/06 12:03:01;;;;;;;4.43;2.08;;;11.30;71.00;;;;;;2509461;54;20976;-69
2024/01/06 12:05:27;;;;;;;4.60;2.10;;;11.30;70.70;;;;;;2277050;56;21008;-68
2024/01/06 12:08:01;;;;;;;4.28;2.22;;;11.30;70.90;;;;;;2280976;56;20972;-68
2024/01/06 12:10:28;;;;;;;6.50;2.40;;;11.40;70.80;;;;;;2277359;56;20975;-69
2024/01/06 12:13:01;;;;;;;3.60;2.10;;;11.40;71.10;;;;;;2511407;54;21338;-68
2024/01/06 12:15:29;;;;;;;5.25;2.28;;;11.40;71.20;;;;;;2279803;54;20940;-69
2024/01/06 12:17:55;;;;;;;4.32;2.08;;;11.40;71.10;;;;;;2277251;56;21011;-68
2024/01/06 12:20:26;;;;;;;4.12;1.85;;;11.40;71.00;;;;;;2509930;54;20936;-68
2024/01/06 12:22:54;;;;;;;3.75;2.00;;;11.40;70.80;;;;;;2277156;56;21575;-68
2024/01/06 12:25:24;;;;;;;3.78;1.75;;;11.40;70.80;;;;;;2277511;56;20944;-68
2024/01/06 12:27:53;;;;;;;4.03;2.25;;;11.40;70.60;;;;;;2277326;56;21055;-69
2024/01/06 12:30:22;;;;;;;5.35;2.20;;;11.40;70.50;;;;;;2280411;55;20968;-68
2024/01/06 12:32:51;;;;;;;3.95;2.20;;;11.40;70.50;;;;;;2279974;55;21092;-68
2024/01/06 12:35:20;;;;;;;4.60;2.40;;;11.40;70.50;;;;;;2277305;56;20991;-68
2024/01/06 12:37:48;;;;;;;3.85;2.10;;;11.40;70.50;;;;;;2509663;54;20952;-68
2024/01/06 12:40:21;;;;;;;4.00;2.40;;;11.40;70.50;;;;;;2277032;55;21051;-68
2024/01/06 12:42:47;;;;;;;3.65;2.10;;;11.40;70.50;;;;;;2509367;54;21028;-68
2024/01/06 12:45:16;;;;;;;4.80;1.77;;;11.40;70.60;;;;;;2277503;56;20964;-68
2024/01/06 12:47:44;;;;;;;4.50;2.40;;;11.40;70.50;;;;;;2277235;56;21340;-69
2024/01/06 12:50:11;;;;;;;2.80;1.52;;;11.40;70.50;;;;;;2278032;55;21043;-68
2024/01/06 12:52:38;;;;;;;3.75;2.20;;;11.40;70.40;;;;;;2277667;55;20964;-69
2024/01/06 12:55:06;;;;;;;4.57;2.08;;;11.40;70.50;;;;;;2276505;56;21795;-69
2024/01/06 12:57:33;;;;;;;3.83;2.10;;;11.40;70.40;;;;;;2277642;55;20936;-68
2024/01/06 13:00:02;;;;;;;3.47;1.85;;;11.40;70.40;;;;;;2509963;55;20913;-68
2024/01/06 13:02:29;;;;;;;4.22;2.33;;;11.40;70.30;;;;;;2509509;54;21457;-68